sensor_id;sensor_type;location;lat;lon;timestamp;P1;durP1;ratioP1;P2;durP2;ratioP2
40204;SDS011;26963;42.666;23.366;2024-02-26T00:01:38;15.30;;;10.90;;
40204;SDS011;26963;42.666;23.366;2024-02-26T00:04:04;13.15;;;9.93;;
40204;SDS011;26963;42.666;23.366;2024-02-26T00:06:30;16.35;;;10.73;;
40204;SDS011;26963;42.666;23.366;2024-02-26T00:08:56;15.90;;;10.25;;
40204;SDS011;26963;42.666;23.366;2024-02-26T00:11:22;15.10;;;11.02;;
40204;SDS011;26963;42.666;23.366;2024-02-26T00:13:48;15.20;;;10.70;;
40204;SDS011;26963;42.666;23.366;2024-02-26T00:16:13;15.52;;;10.85;;
40204;SDS011;26963;42.666;23.366;2024-02-26T00:18:39;12.48;;;9.85;;
40204;SDS011;26963;42.666;23.366;2024-02-26T00:21:04;14.50;;;10.00;;
40204;SDS011;26963;42.666;23.366;2024-02-26T00:23:30;13.02;;;10.63;;
40204;SDS011;26963;42.666;23.366;2024-02-26T00:25:57;14.90;;;10.70;;
40204;SDS011;26963;42.666;23.366;2024-02-26T00:28:23;15.13;;;12.00;;
40204;SDS011;26963;42.666;23.366;2024-02-26T00:30:50;13.23;;;10.88;;
40204;SDS011;26963;42.666;23.366;2024-02-26T00:33:16;15.10;;;12.00;;
40204;SDS011;26963;42.666;23.366;2024-02-26T00:35:42;15.05;;;11.77;;
40204;SDS011;26963;42.666;23.366;2024-02-26T00:38:08;16.55;;;12.00;;
40204;SDS011;26963;42.666;23.366;2024-02-26T00:40:33;14.80;;;11.30;;
40204;SDS011;26963;42.666;23.366;2024-02-26T00:42:59;15.63;;;10.90;;
40204;SDS011;26963;42.666;23.366;2024-02-26T00:45:25;17.40;;;11.70;;
40204;SDS011;26963;42.666;23.366;2024-02-26T00:47:51;14.25;;;11.20;;
40204;SDS011;26963;42.666;23.366;2024-02-26T00:50:16;14.85;;;10.80;;
40204;SDS011;26963;42.666;23.366;2024-02-26T00:52:42;15.68;;;9.93;;
40204;SDS011;26963;42.666;23.366;2024-02-26T00:55:08;14.75;;;10.35;;
40204;SDS011;26963;42.666;23.366;2024-02-26T00:57:33;13.52;;;10.45;;
40204;SDS011;26963;42.666;23.366;2024-02-26T00:59:59;14.85;;;11.27;;
40204;SDS011;26963;42.666;23.366;2024-02-26T01:02:26;15.88;;;11.05;;
40204;SDS011;26963;42.666;23.366;2024-02-26T01:04:52;16.00;;;11.18;;
40204;SDS011;26963;42.666;23.366;2024-02-26T01:07:19;17.02;;;11.45;;
40204;SDS011;26963;42.666;23.366;2024-02-26T01:09:44;16.35;;;11.70;;
40204;SDS011;26963;42.666;23.366;2024-02-26T01:12:10;17.23;;;12.15;;
40204;SDS011;26963;42.666;23.366;2024-02-26T01:14:36;15.77;;;11.80;;
40204;SDS011;26963;42.666;23.366;2024-02-26T01:17:01;15.25;;;12.35;;
40204;SDS011;26963;42.666;23.366;2024-02-26T01:19:28;15.02;;;11.45;;
40204;SDS011;26963;42.666;23.366;2024-02-26T01:21:54;16.90;;;11.63;;
40204;SDS011;26963;42.666;23.366;2024-02-26T01:24:19;16.27;;;11.52;;
40204;SDS011;26963;42.666;23.366;2024-02-26T01:26:45;14.27;;;9.98;;
40204;SDS011;26963;42.666;23.366;2024-02-26T01:29:10;14.35;;;11.18;;
40204;SDS011;26963;42.666;23.366;2024-02-26T01:31:36;14.68;;;12.63;;
40204;SDS011;26963;42.666;23.366;2024-02-26T01:34:01;18.67;;;11.60;;
40204;SDS011;26963;42.666;23.366;2024-02-26T01:36:27;14.13;;;11.48;;
40204;SDS011;26963;42.666;23.366;2024-02-26T01:38:53;15.07;;;11.88;;
40204;SDS011;26963;42.666;23.366;2024-02-26T01:41:18;14.80;;;11.45;;
40204;SDS011;26963;42.666;23.366;2024-02-26T01:43:44;16.85;;;11.90;;
40204;SDS011;26963;42.666;23.366;2024-02-26T01:46:10;17.60;;;13.13;;
40204;SDS011;26963;42.666;23.366;2024-02-26T01:48:39;16.92;;;12.82;;
40204;SDS011;26963;42.666;23.366;2024-02-26T01:51:06;18.80;;;13.40;;
40204;SDS011;26963;42.666;23.366;2024-02-26T01:53:32;16.23;;;12.02;;
40204;SDS011;26963;42.666;23.366;2024-02-26T01:55:58;15.40;;;11.18;;
40204;SDS011;26963;42.666;23.366;2024-02-26T01:58:24;15.00;;;11.25;;
40204;SDS011;26963;42.666;23.366;2024-02-26T02:00:50;14.93;;;11.98;;
40204;SDS011;26963;42.666;23.366;2024-02-26T02:03:15;15.70;;;12.80;;
40204;SDS011;26963;42.666;23.366;2024-02-26T02:05:41;17.30;;;12.68;;
40204;SDS011;26963;42.666;23.366;2024-02-26T02:08:08;15.38;;;11.80;;
40204;SDS011;26963;42.666;23.366;2024-02-26T02:10:36;14.13;;;11.35;;
40204;SDS011;26963;42.666;23.366;2024-02-26T02:13:03;18.15;;;12.98;;
40204;SDS011;26963;42.666;23.366;2024-02-26T02:15:29;17.17;;;12.50;;
40204;SDS011;26963;42.666;23.366;2024-02-26T02:17:55;17.58;;;12.85;;
40204;SDS011;26963;42.666;23.366;2024-02-26T02:20:33;15.13;;;12.18;;
40204;SDS011;26963;42.666;23.366;2024-02-26T02:22:59;13.57;;;11.32;;
40204;SDS011;26963;42.666;23.366;2024-02-26T02:25:25;15.80;;;12.73;;
40204;SDS011;26963;42.666;23.366;2024-02-26T02:27:51;17.75;;;12.13;;
40204;SDS011;26963;42.666;23.366;2024-02-26T02:30:18;15.88;;;11.65;;
40204;SDS011;26963;42.666;23.366;2024-02-26T02:32:45;19.50;;;13.73;;
40204;SDS011;26963;42.666;23.366;2024-02-26T02:35:11;19.23;;;14.07;;
40204;SDS011;26963;42.666;23.366;2024-02-26T02:37:37;19.65;;;14.32;;
40204;SDS011;26963;42.666;23.366;2024-02-26T02:40:02;16.55;;;13.13;;
40204;SDS011;26963;42.666;23.366;2024-02-26T02:42:28;21.30;;;14.90;;
40204;SDS011;26963;42.666;23.366;2024-02-26T02:44:54;23.33;;;15.77;;
40204;SDS011;26963;42.666;23.366;2024-02-26T02:47:19;18.98;;;14.98;;
40204;SDS011;26963;42.666;23.366;2024-02-26T02:49:45;20.30;;;14.88;;
40204;SDS011;26963;42.666;23.366;2024-02-26T02:52:11;20.67;;;15.18;;
40204;SDS011;26963;42.666;23.366;2024-02-26T02:54:36;22.20;;;14.93;;
40204;SDS011;26963;42.666;23.366;2024-02-26T02:57:05;25.25;;;17.25;;
40204;SDS011;26963;42.666;23.366;2024-02-26T02:59:31;23.45;;;17.60;;
40204;SDS011;26963;42.666;23.366;2024-02-26T03:01:56;16.55;;;13.70;;
40204;SDS011;26963;42.666;23.366;2024-02-26T03:04:22;19.85;;;13.75;;
40204;SDS011;26963;42.666;23.366;2024-02-26T03:06:48;19.73;;;14.80;;
40204;SDS011;26963;42.666;23.366;2024-02-26T03:09:13;18.88;;;13.90;;
40204;SDS011;26963;42.666;23.366;2024-02-26T03:11:39;19.02;;;14.00;;
40204;SDS011;26963;42.666;23.366;2024-02-26T03:14:05;18.80;;;15.10;;
40204;SDS011;26963;42.666;23.366;2024-02-26T03:16:31;23.35;;;15.75;;
40204;SDS011;26963;42.666;23.366;2024-02-26T03:18:57;22.60;;;15.27;;
40204;SDS011;26963;42.666;23.366;2024-02-26T03:21:23;19.52;;;14.80;;
40204;SDS011;26963;42.666;23.366;2024-02-26T03:23:51;21.25;;;15.48;;
40204;SDS011;26963;42.666;23.366;2024-02-26T03:26:17;23.25;;;15.73;;
40204;SDS011;26963;42.666;23.366;2024-02-26T03:28:42;18.27;;;14.43;;
40204;SDS011;26963;42.666;23.366;2024-02-26T03:31:08;18.42;;;14.23;;
40204;SDS011;26963;42.666;23.366;2024-02-26T03:33:34;20.02;;;15.35;;
40204;SDS011;26963;42.666;23.366;2024-02-26T03:35:59;21.02;;;16.15;;
40204;SDS011;26963;42.666;23.366;2024-02-26T03:38:25;19.90;;;14.77;;
40204;SDS011;26963;42.666;23.366;2024-02-26T03:40:51;22.63;;;16.55;;
40204;SDS011;26963;42.666;23.366;2024-02-26T03:43:16;19.38;;;15.27;;
40204;SDS011;26963;42.666;23.366;2024-02-26T03:45:42;24.45;;;16.90;;
40204;SDS011;26963;42.666;23.366;2024-02-26T03:48:08;20.27;;;15.70;;
40204;SDS011;26963;42.666;23.366;2024-02-26T03:50:33;21.75;;;16.50;;
40204;SDS011;26963;42.666;23.366;2024-02-26T03:52:59;24.45;;;16.60;;
40204;SDS011;26963;42.666;23.366;2024-02-26T03:55:25;21.08;;;17.13;;
40204;SDS011;26963;42.666;23.366;2024-02-26T03:57:54;25.75;;;17.92;;
40204;SDS011;26963;42.666;23.366;2024-02-26T04:00:19;27.23;;;17.83;;
40204;SDS011;26963;42.666;23.366;2024-02-26T04:02:46;23.90;;;18.05;;
40204;SDS011;26963;42.666;23.366;2024-02-26T04:05:13;26.15;;;17.20;;
40204;SDS011;26963;42.666;23.366;2024-02-26T04:07:39;26.63;;;19.80;;
40204;SDS011;26963;42.666;23.366;2024-02-26T04:10:12;26.10;;;19.52;;
40204;SDS011;26963;42.666;23.366;2024-02-26T04:12:41;26.83;;;19.45;;
40204;SDS011;26963;42.666;23.366;2024-02-26T04:15:07;24.27;;;18.73;;
40204;SDS011;26963;42.666;23.366;2024-02-26T04:17:34;26.95;;;19.30;;
40204;SDS011;26963;42.666;23.366;2024-02-26T04:20:01;29.75;;;23.13;;
40204;SDS011;26963;42.666;23.366;2024-02-26T04:22:27;34.67;;;23.65;;
40204;SDS011;26963;42.666;23.366;2024-02-26T04:24:54;34.80;;;26.63;;
40204;SDS011;26963;42.666;23.366;2024-02-26T04:27:19;34.35;;;26.45;;
40204;SDS011;26963;42.666;23.366;2024-02-26T04:29:45;33.97;;;23.85;;
40204;SDS011;26963;42.666;23.366;2024-02-26T04:32:10;26.00;;;19.38;;
40204;SDS011;26963;42.666;23.366;2024-02-26T04:34:36;32.15;;;23.55;;
40204;SDS011;26963;42.666;23.366;2024-02-26T04:37:01;34.92;;;25.25;;
40204;SDS011;26963;42.666;23.366;2024-02-26T04:39:27;38.58;;;29.13;;
40204;SDS011;26963;42.666;23.366;2024-02-26T04:41:53;35.13;;;26.85;;
40204;SDS011;26963;42.666;23.366;2024-02-26T04:44:18;33.83;;;26.15;;
40204;SDS011;26963;42.666;23.366;2024-02-26T04:46:44;28.73;;;22.38;;
40204;SDS011;26963;42.666;23.366;2024-02-26T04:49:09;19.23;;;13.38;;
40204;SDS011;26963;42.666;23.366;2024-02-26T04:51:35;16.70;;;12.05;;
40204;SDS011;26963;42.666;23.366;2024-02-26T04:54:02;15.38;;;12.15;;
40204;SDS011;26963;42.666;23.366;2024-02-26T04:56:28;15.43;;;12.38;;
40204;SDS011;26963;42.666;23.366;2024-02-26T04:58:53;31.17;;;19.65;;
40204;SDS011;26963;42.666;23.366;2024-02-26T05:01:19;30.90;;;24.58;;
40204;SDS011;26963;42.666;23.366;2024-02-26T05:03:45;33.08;;;24.50;;
40204;SDS011;26963;42.666;23.366;2024-02-26T05:06:10;37.42;;;25.02;;
40204;SDS011;26963;42.666;23.366;2024-02-26T05:08:36;42.45;;;27.80;;
40204;SDS011;26963;42.666;23.366;2024-02-26T05:11:03;36.80;;;26.42;;
40204;SDS011;26963;42.666;23.366;2024-02-26T05:13:29;37.13;;;26.52;;
40204;SDS011;26963;42.666;23.366;2024-02-26T05:15:55;32.90;;;25.60;;
40204;SDS011;26963;42.666;23.366;2024-02-26T05:18:21;30.95;;;25.08;;
40204;SDS011;26963;42.666;23.366;2024-02-26T05:20:48;37.38;;;25.67;;
40204;SDS011;26963;42.666;23.366;2024-02-26T05:23:13;33.28;;;26.00;;
40204;SDS011;26963;42.666;23.366;2024-02-26T05:25:39;40.33;;;27.67;;
40204;SDS011;26963;42.666;23.366;2024-02-26T05:28:06;34.92;;;27.55;;
40204;SDS011;26963;42.666;23.366;2024-02-26T05:30:32;35.20;;;28.05;;
40204;SDS011;26963;42.666;23.366;2024-02-26T05:33:00;40.00;;;27.92;;
40204;SDS011;26963;42.666;23.366;2024-02-26T05:35:26;38.40;;;28.98;;
40204;SDS011;26963;42.666;23.366;2024-02-26T05:37:51;39.10;;;30.70;;
40204;SDS011;26963;42.666;23.366;2024-02-26T05:40:17;35.05;;;28.00;;
40204;SDS011;26963;42.666;23.366;2024-02-26T05:42:42;37.42;;;26.88;;
40204;SDS011;26963;42.666;23.366;2024-02-26T05:45:10;38.47;;;29.38;;
40204;SDS011;26963;42.666;23.366;2024-02-26T05:47:36;36.13;;;28.73;;
40204;SDS011;26963;42.666;23.366;2024-02-26T05:50:08;34.42;;;27.30;;
40204;SDS011;26963;42.666;23.366;2024-02-26T05:52:37;44.08;;;30.55;;
40204;SDS011;26963;42.666;23.366;2024-02-26T05:55:06;41.72;;;29.98;;
40204;SDS011;26963;42.666;23.366;2024-02-26T05:57:33;37.65;;;30.02;;
40204;SDS011;26963;42.666;23.366;2024-02-26T05:59:59;37.08;;;29.13;;
40204;SDS011;26963;42.666;23.366;2024-02-26T06:02:31;38.95;;;28.70;;
40204;SDS011;26963;42.666;23.366;2024-02-26T06:04:57;38.92;;;29.10;;
40204;SDS011;26963;42.666;23.366;2024-02-26T06:07:23;36.75;;;27.83;;
40204;SDS011;26963;42.666;23.366;2024-02-26T06:09:49;37.55;;;27.35;;
40204;SDS011;26963;42.666;23.366;2024-02-26T06:12:14;37.33;;;27.92;;
40204;SDS011;26963;42.666;23.366;2024-02-26T06:14:41;35.45;;;27.55;;
40204;SDS011;26963;42.666;23.366;2024-02-26T06:17:07;31.48;;;24.92;;
40204;SDS011;26963;42.666;23.366;2024-02-26T06:19:33;30.95;;;24.50;;
40204;SDS011;26963;42.666;23.366;2024-02-26T06:21:59;32.05;;;25.35;;
40204;SDS011;26963;42.666;23.366;2024-02-26T06:24:24;36.35;;;25.50;;
40204;SDS011;26963;42.666;23.366;2024-02-26T06:26:50;30.38;;;23.20;;
40204;SDS011;26963;42.666;23.366;2024-02-26T06:29:16;26.58;;;21.55;;
40204;SDS011;26963;42.666;23.366;2024-02-26T06:31:41;27.77;;;22.58;;
40204;SDS011;26963;42.666;23.366;2024-02-26T06:34:10;31.25;;;24.10;;
40204;SDS011;26963;42.666;23.366;2024-02-26T06:36:36;42.28;;;28.08;;
40204;SDS011;26963;42.666;23.366;2024-02-26T06:39:02;39.10;;;27.20;;
40204;SDS011;26963;42.666;23.366;2024-02-26T06:41:28;37.92;;;26.95;;
40204;SDS011;26963;42.666;23.366;2024-02-26T06:43:55;37.65;;;26.63;;
40204;SDS011;26963;42.666;23.366;2024-02-26T06:46:20;41.80;;;29.52;;
40204;SDS011;26963;42.666;23.366;2024-02-26T06:48:47;34.28;;;25.58;;
40204;SDS011;26963;42.666;23.366;2024-02-26T06:51:13;35.40;;;26.67;;
40204;SDS011;26963;42.666;23.366;2024-02-26T06:53:39;33.70;;;26.08;;
40204;SDS011;26963;42.666;23.366;2024-02-26T06:56:04;32.88;;;25.98;;
40204;SDS011;26963;42.666;23.366;2024-02-26T06:58:30;36.30;;;26.73;;
40204;SDS011;26963;42.666;23.366;2024-02-26T07:00:56;40.90;;;29.50;;
40204;SDS011;26963;42.666;23.366;2024-02-26T07:03:21;41.55;;;30.13;;
40204;SDS011;26963;42.666;23.366;2024-02-26T07:05:51;41.92;;;29.45;;
40204;SDS011;26963;42.666;23.366;2024-02-26T07:08:17;44.70;;;29.05;;
40204;SDS011;26963;42.666;23.366;2024-02-26T07:10:43;39.05;;;27.88;;
40204;SDS011;26963;42.666;23.366;2024-02-26T07:13:08;35.53;;;27.17;;
40204;SDS011;26963;42.666;23.366;2024-02-26T07:15:34;40.35;;;27.60;;
40204;SDS011;26963;42.666;23.366;2024-02-26T07:18:00;40.13;;;28.52;;
40204;SDS011;26963;42.666;23.366;2024-02-26T07:20:31;37.88;;;27.33;;
40204;SDS011;26963;42.666;23.366;2024-02-26T07:22:57;38.08;;;27.38;;
40204;SDS011;26963;42.666;23.366;2024-02-26T07:25:23;33.35;;;26.02;;
40204;SDS011;26963;42.666;23.366;2024-02-26T07:27:52;35.40;;;26.55;;
40204;SDS011;26963;42.666;23.366;2024-02-26T07:30:17;34.17;;;24.30;;
40204;SDS011;26963;42.666;23.366;2024-02-26T07:32:43;39.13;;;25.95;;
40204;SDS011;26963;42.666;23.366;2024-02-26T07:35:10;37.50;;;28.23;;
40204;SDS011;26963;42.666;23.366;2024-02-26T07:37:35;35.20;;;28.20;;
40204;SDS011;26963;42.666;23.366;2024-02-26T07:40:01;39.85;;;29.00;;
40204;SDS011;26963;42.666;23.366;2024-02-26T07:42:26;39.38;;;28.85;;
40204;SDS011;26963;42.666;23.366;2024-02-26T07:44:52;45.28;;;29.65;;
40204;SDS011;26963;42.666;23.366;2024-02-26T07:47:18;40.83;;;31.17;;
40204;SDS011;26963;42.666;23.366;2024-02-26T07:49:44;48.00;;;33.22;;
40204;SDS011;26963;42.666;23.366;2024-02-26T07:52:10;47.70;;;34.67;;
40204;SDS011;26963;42.666;23.366;2024-02-26T07:54:36;55.33;;;38.53;;
40204;SDS011;26963;42.666;23.366;2024-02-26T07:57:01;66.25;;;52.80;;
40204;SDS011;26963;42.666;23.366;2024-02-26T07:59:30;59.90;;;47.13;;
40204;SDS011;26963;42.666;23.366;2024-02-26T08:01:56;56.17;;;41.60;;
40204;SDS011;26963;42.666;23.366;2024-02-26T08:04:22;54.72;;;40.00;;
40204;SDS011;26963;42.666;23.366;2024-02-26T08:06:48;42.17;;;28.75;;
40204;SDS011;26963;42.666;23.366;2024-02-26T08:09:13;42.03;;;29.58;;
40204;SDS011;26963;42.666;23.366;2024-02-26T08:11:39;28.55;;;20.10;;
40204;SDS011;26963;42.666;23.366;2024-02-26T08:14:04;22.70;;;14.00;;
40204;SDS011;26963;42.666;23.366;2024-02-26T08:16:30;21.85;;;15.32;;
40204;SDS011;26963;42.666;23.366;2024-02-26T08:18:56;34.90;;;22.10;;
40204;SDS011;26963;42.666;23.366;2024-02-26T08:21:22;39.33;;;27.50;;
40204;SDS011;26963;42.666;23.366;2024-02-26T08:23:47;41.55;;;27.00;;
40204;SDS011;26963;42.666;23.366;2024-02-26T08:26:13;45.00;;;27.70;;
40204;SDS011;26963;42.666;23.366;2024-02-26T08:28:38;39.30;;;25.08;;
40204;SDS011;26963;42.666;23.366;2024-02-26T08:31:04;33.92;;;23.85;;
40204;SDS011;26963;42.666;23.366;2024-02-26T08:33:30;34.22;;;26.33;;
40204;SDS011;26963;42.666;23.366;2024-02-26T08:35:56;41.80;;;24.25;;
40204;SDS011;26963;42.666;23.366;2024-02-26T08:38:22;32.40;;;20.80;;
40204;SDS011;26963;42.666;23.366;2024-02-26T08:40:48;22.67;;;16.17;;
40204;SDS011;26963;42.666;23.366;2024-02-26T08:43:14;18.67;;;13.77;;
40204;SDS011;26963;42.666;23.366;2024-02-26T08:45:40;19.95;;;13.50;;
40204;SDS011;26963;42.666;23.366;2024-02-26T08:48:05;19.95;;;12.43;;
40204;SDS011;26963;42.666;23.366;2024-02-26T08:50:32;22.83;;;12.73;;
40204;SDS011;26963;42.666;23.366;2024-02-26T08:52:58;22.42;;;12.23;;
40204;SDS011;26963;42.666;23.366;2024-02-26T08:55:26;14.48;;;9.77;;
40204;SDS011;26963;42.666;23.366;2024-02-26T08:57:52;12.23;;;7.60;;
40204;SDS011;26963;42.666;23.366;2024-02-26T09:00:17;10.02;;;7.25;;
40204;SDS011;26963;42.666;23.366;2024-02-26T09:02:46;14.07;;;7.28;;
40204;SDS011;26963;42.666;23.366;2024-02-26T09:05:12;9.70;;;7.00;;
40204;SDS011;26963;42.666;23.366;2024-02-26T09:07:38;12.00;;;7.22;;
40204;SDS011;26963;42.666;23.366;2024-02-26T09:10:04;11.90;;;8.43;;
40204;SDS011;26963;42.666;23.366;2024-02-26T09:12:31;12.52;;;8.48;;
40204;SDS011;26963;42.666;23.366;2024-02-26T09:14:57;13.68;;;8.70;;
40204;SDS011;26963;42.666;23.366;2024-02-26T09:17:22;10.65;;;7.72;;
40204;SDS011;26963;42.666;23.366;2024-02-26T09:19:48;13.75;;;8.93;;
40204;SDS011;26963;42.666;23.366;2024-02-26T09:22:14;11.68;;;8.65;;
40204;SDS011;26963;42.666;23.366;2024-02-26T09:24:40;10.60;;;7.88;;
40204;SDS011;26963;42.666;23.366;2024-02-26T09:27:06;11.52;;;7.55;;
40204;SDS011;26963;42.666;23.366;2024-02-26T09:29:31;10.25;;;8.05;;
40204;SDS011;26963;42.666;23.366;2024-02-26T09:31:58;9.55;;;7.55;;
40204;SDS011;26963;42.666;23.366;2024-02-26T09:34:23;9.98;;;7.68;;
40204;SDS011;26963;42.666;23.366;2024-02-26T09:36:49;14.43;;;7.65;;
40204;SDS011;26963;42.666;23.366;2024-02-26T09:39:15;9.63;;;6.82;;
40204;SDS011;26963;42.666;23.366;2024-02-26T09:41:45;9.98;;;6.35;;
40204;SDS011;26963;42.666;23.366;2024-02-26T09:44:11;11.02;;;6.30;;
40204;SDS011;26963;42.666;23.366;2024-02-26T09:46:41;8.65;;;6.35;;
40204;SDS011;26963;42.666;23.366;2024-02-26T09:49:07;8.35;;;6.00;;
40204;SDS011;26963;42.666;23.366;2024-02-26T09:51:35;10.30;;;5.85;;
40204;SDS011;26963;42.666;23.366;2024-02-26T09:54:01;12.68;;;6.28;;
40204;SDS011;26963;42.666;23.366;2024-02-26T09:56:26;9.88;;;6.53;;
40204;SDS011;26963;42.666;23.366;2024-02-26T09:58:54;8.63;;;5.72;;
40204;SDS011;26963;42.666;23.366;2024-02-26T10:01:24;7.53;;;5.85;;
40204;SDS011;26963;42.666;23.366;2024-02-26T10:03:56;10.18;;;6.47;;
40204;SDS011;26963;42.666;23.366;2024-02-26T10:06:23;13.05;;;6.43;;
40204;SDS011;26963;42.666;23.366;2024-02-26T10:08:51;9.98;;;6.22;;
40204;SDS011;26963;42.666;23.366;2024-02-26T10:11:19;10.07;;;6.70;;
40204;SDS011;26963;42.666;23.366;2024-02-26T10:13:47;8.95;;;6.38;;
40204;SDS011;26963;42.666;23.366;2024-02-26T10:16:13;9.82;;;6.40;;
40204;SDS011;26963;42.666;23.366;2024-02-26T10:18:46;9.18;;;6.95;;
40204;SDS011;26963;42.666;23.366;2024-02-26T10:21:13;10.65;;;6.43;;
40204;SDS011;26963;42.666;23.366;2024-02-26T10:23:42;9.70;;;5.85;;
40204;SDS011;26963;42.666;23.366;2024-02-26T10:26:08;7.68;;;5.57;;
40204;SDS011;26963;42.666;23.366;2024-02-26T10:28:36;9.40;;;6.35;;
40204;SDS011;26963;42.666;23.366;2024-02-26T10:31:02;8.13;;;6.38;;
40204;SDS011;26963;42.666;23.366;2024-02-26T10:33:28;9.45;;;6.78;;
40204;SDS011;26963;42.666;23.366;2024-02-26T10:35:54;7.55;;;5.63;;
40204;SDS011;26963;42.666;23.366;2024-02-26T10:38:19;8.55;;;5.85;;
40204;SDS011;26963;42.666;23.366;2024-02-26T10:40:46;7.93;;;5.88;;
40204;SDS011;26963;42.666;23.366;2024-02-26T10:43:13;8.48;;;5.85;;
40204;SDS011;26963;42.666;23.366;2024-02-26T10:45:41;9.27;;;6.10;;
40204;SDS011;26963;42.666;23.366;2024-02-26T10:48:13;9.05;;;5.80;;
40204;SDS011;26963;42.666;23.366;2024-02-26T10:50:39;8.90;;;5.53;;
40204;SDS011;26963;42.666;23.366;2024-02-26T10:56:02;6.60;;;5.70;;
40204;SDS011;26963;42.666;23.366;2024-02-26T10:58:30;8.63;;;5.55;;
40204;SDS011;26963;42.666;23.366;2024-02-26T11:00:56;9.93;;;5.93;;
40204;SDS011;26963;42.666;23.366;2024-02-26T11:03:22;9.68;;;5.57;;
40204;SDS011;26963;42.666;23.366;2024-02-26T11:05:49;8.35;;;5.72;;
40204;SDS011;26963;42.666;23.366;2024-02-26T11:08:17;7.25;;;5.45;;
40204;SDS011;26963;42.666;23.366;2024-02-26T11:10:44;8.50;;;5.70;;
40204;SDS011;26963;42.666;23.366;2024-02-26T11:13:14;7.55;;;5.18;;
40204;SDS011;26963;42.666;23.366;2024-02-26T11:15:40;9.02;;;5.60;;
40204;SDS011;26963;42.666;23.366;2024-02-26T11:18:08;8.35;;;5.07;;
40204;SDS011;26963;42.666;23.366;2024-02-26T11:20:35;7.88;;;5.40;;
40204;SDS011;26963;42.666;23.366;2024-02-26T11:23:04;9.48;;;5.82;;
40204;SDS011;26963;42.666;23.366;2024-02-26T11:25:31;8.50;;;5.65;;
40204;SDS011;26963;42.666;23.366;2024-02-26T11:28:01;7.53;;;5.63;;
40204;SDS011;26963;42.666;23.366;2024-02-26T11:30:31;8.13;;;6.15;;
40204;SDS011;26963;42.666;23.366;2024-02-26T11:33:00;7.90;;;5.60;;
40204;SDS011;26963;42.666;23.366;2024-02-26T11:35:26;8.60;;;5.68;;
40204;SDS011;26963;42.666;23.366;2024-02-26T11:37:54;9.52;;;5.35;;
40204;SDS011;26963;42.666;23.366;2024-02-26T11:40:22;7.85;;;4.97;;
40204;SDS011;26963;42.666;23.366;2024-02-26T11:42:50;11.80;;;5.80;;
40204;SDS011;26963;42.666;23.366;2024-02-26T11:48:04;7.57;;;5.38;;
40204;SDS011;26963;42.666;23.366;2024-02-26T11:50:41;8.38;;;5.85;;
40204;SDS011;26963;42.666;23.366;2024-02-26T11:55:47;8.80;;;4.90;;
40204;SDS011;26963;42.666;23.366;2024-02-26T11:58:13;7.38;;;4.95;;
40204;SDS011;26963;42.666;23.366;2024-02-26T12:00:42;7.38;;;4.90;;
40204;SDS011;26963;42.666;23.366;2024-02-26T12:03:08;8.32;;;5.13;;
40204;SDS011;26963;42.666;23.366;2024-02-26T12:05:35;7.03;;;5.03;;
40204;SDS011;26963;42.666;23.366;2024-02-26T12:08:03;9.90;;;5.28;;
40204;SDS011;26963;42.666;23.366;2024-02-26T12:15:41;9.77;;;5.23;;
40204;SDS011;26963;42.666;23.366;2024-02-26T12:18:20;7.45;;;4.65;;
40204;SDS011;26963;42.666;23.366;2024-02-26T12:21:21;7.43;;;4.70;;
40204;SDS011;26963;42.666;23.366;2024-02-26T12:23:41;8.25;;;4.78;;
40204;SDS011;26963;42.666;23.366;2024-02-26T12:26:07;7.03;;;5.18;;
40204;SDS011;26963;42.666;23.366;2024-02-26T12:28:33;7.47;;;4.78;;
40204;SDS011;26963;42.666;23.366;2024-02-26T12:30:59;8.05;;;4.70;;
40204;SDS011;26963;42.666;23.366;2024-02-26T12:33:25;8.32;;;5.30;;
40204;SDS011;26963;42.666;23.366;2024-02-26T12:35:52;7.45;;;4.72;;
40204;SDS011;26963;42.666;23.366;2024-02-26T12:38:18;5.47;;;4.13;;
40204;SDS011;26963;42.666;23.366;2024-02-26T12:40:44;7.95;;;5.20;;
40204;SDS011;26963;42.666;23.366;2024-02-26T12:43:10;7.70;;;4.65;;
40204;SDS011;26963;42.666;23.366;2024-02-26T12:45:40;7.82;;;4.75;;
40204;SDS011;26963;42.666;23.366;2024-02-26T12:48:09;8.88;;;4.45;;
40204;SDS011;26963;42.666;23.366;2024-02-26T12:50:34;7.60;;;4.35;;
40204;SDS011;26963;42.666;23.366;2024-02-26T12:53:00;8.70;;;4.63;;
40204;SDS011;26963;42.666;23.366;2024-02-26T12:55:28;6.05;;;4.43;;
40204;SDS011;26963;42.666;23.366;2024-02-26T12:57:55;7.88;;;4.50;;
40204;SDS011;26963;42.666;23.366;2024-02-26T13:00:25;7.28;;;4.90;;
40204;SDS011;26963;42.666;23.366;2024-02-26T13:02:53;6.70;;;4.38;;
40204;SDS011;26963;42.666;23.366;2024-02-26T13:05:20;7.10;;;4.68;;
40204;SDS011;26963;42.666;23.366;2024-02-26T13:07:47;6.78;;;4.50;;
40204;SDS011;26963;42.666;23.366;2024-02-26T13:10:13;8.55;;;4.47;;
40204;SDS011;26963;42.666;23.366;2024-02-26T13:12:43;10.40;;;4.82;;
40204;SDS011;26963;42.666;23.366;2024-02-26T13:15:13;7.97;;;4.70;;
40204;SDS011;26963;42.666;23.366;2024-02-26T13:17:40;7.22;;;4.50;;
40204;SDS011;26963;42.666;23.366;2024-02-26T13:20:07;7.03;;;4.50;;
40204;SDS011;26963;42.666;23.366;2024-02-26T13:22:35;7.45;;;4.60;;
40204;SDS011;26963;42.666;23.366;2024-02-26T13:25:01;7.53;;;4.65;;
40204;SDS011;26963;42.666;23.366;2024-02-26T13:27:28;7.63;;;4.40;;
40204;SDS011;26963;42.666;23.366;2024-02-26T13:32:33;7.22;;;4.35;;
40204;SDS011;26963;42.666;23.366;2024-02-26T13:35:07;6.20;;;3.95;;
40204;SDS011;26963;42.666;23.366;2024-02-26T13:37:37;7.82;;;5.32;;
40204;SDS011;26963;42.666;23.366;2024-02-26T13:40:04;7.57;;;3.83;;
40204;SDS011;26963;42.666;23.366;2024-02-26T13:42:37;5.55;;;4.10;;
40204;SDS011;26963;42.666;23.366;2024-02-26T13:45:03;10.55;;;4.30;;
40204;SDS011;26963;42.666;23.366;2024-02-26T13:47:33;9.30;;;4.53;;
40204;SDS011;26963;42.666;23.366;2024-02-26T13:49:59;7.25;;;4.03;;
40204;SDS011;26963;42.666;23.366;2024-02-26T13:52:26;9.00;;;3.90;;
40204;SDS011;26963;42.666;23.366;2024-02-26T13:54:51;6.68;;;3.78;;
40204;SDS011;26963;42.666;23.366;2024-02-26T13:57:18;6.55;;;3.85;;
40204;SDS011;26963;42.666;23.366;2024-02-26T13:59:45;6.05;;;4.00;;
40204;SDS011;26963;42.666;23.366;2024-02-26T14:02:11;9.57;;;4.15;;
40204;SDS011;26963;42.666;23.366;2024-02-26T14:04:37;6.78;;;4.10;;
40204;SDS011;26963;42.666;23.366;2024-02-26T14:07:02;7.00;;;4.28;;
40204;SDS011;26963;42.666;23.366;2024-02-26T14:09:29;10.75;;;4.53;;
40204;SDS011;26963;42.666;23.366;2024-02-26T14:11:55;9.25;;;4.28;;
40204;SDS011;26963;42.666;23.366;2024-02-26T14:14:20;9.15;;;4.20;;
40204;SDS011;26963;42.666;23.366;2024-02-26T14:16:46;8.43;;;4.20;;
40204;SDS011;26963;42.666;23.366;2024-02-26T14:19:12;8.00;;;4.15;;
40204;SDS011;26963;42.666;23.366;2024-02-26T14:21:38;10.90;;;4.20;;
40204;SDS011;26963;42.666;23.366;2024-02-26T14:24:04;8.90;;;4.13;;
40204;SDS011;26963;42.666;23.366;2024-02-26T14:26:30;8.10;;;4.18;;
40204;SDS011;26963;42.666;23.366;2024-02-26T14:28:56;8.52;;;4.20;;
40204;SDS011;26963;42.666;23.366;2024-02-26T14:31:21;7.57;;;4.03;;